Terminal Aerodrome Forecast
Issued by NWS Jackson, KY

Home | Current Version | Previous Version | Text Only | Print | Product List | Glossary On
Versions: 1 2 3 4 5 6 7 8 9 10 11 12
000
FTUS43 KJKL 242000 AAA
TAFJKL
TAF AMD
KJKL 242056Z 2421/2518 19009G20KT P6SM BKN035
     FM242100 26018G33KT 3SM -SHRA BR OVC009
     FM242115 27015G25KT 4SM -SHRA BR OVC009
     FM250000 26010G18KT P6SM OVC009
     FM250400 26010G18KT 5SM -RA BR OVC018
     FM251200 25008KT P6SM BKN025=

USA.gov is the U.S. government's official web portal to all federal, state and local government web resources and services.